Time;durP1;ratioP1;P1;durP2;ratioP2;P2;SDS_P1;SDS_P2;PMS_P1;PMS_P2;Temp;Humidity;BMP_temperature;BMP_pressure;BME280_temperature;BME280_humidity;BME280_pressure;Samples;Min_cycle;Max_cycle;Signal;HPM_P1;HPM_P2
2022/10/29 00:01:00;;;;;;;1.80;0.60;;;22.40;30.90;;;;;;5039329;28;20183;-67
2022/10/29 00:03:28;;;;;;;1.73;0.60;;;22.30;30.60;;;;;;5053300;28;20214;-70
2022/10/29 00:06:04;;;;;;;1.03;0.60;;;22.20;30.90;;;;;;5054103;28;20242;-73
2022/10/29 00:08:34;;;;;;;0.47;0.40;;;22.40;30.40;;;;;;5068212;28;20550;-71
2022/10/29 00:11:12;;;;;;;6.53;1.13;;;22.70;30.10;;;;;;5052523;28;20360;-69
2022/10/29 00:13:40;;;;;;;3.53;0.57;;;22.50;30.10;;;;;;5053742;28;20179;-69
2022/10/29 00:16:13;;;;;;;0.60;0.50;;;22.50;30.30;;;;;;5033415;28;20187;-73
2022/10/29 00:18:41;;;;;;;2.27;0.60;;;22.60;30.80;;;;;;5050182;28;20180;-69
2022/10/29 00:21:12;;;;;;;3.23;0.70;;;22.90;30.70;;;;;;5053286;28;20198;-70
2022/10/29 00:23:40;;;;;;;3.40;0.67;;;22.80;30.10;;;;;;5053345;28;20184;-69
2022/10/29 00:26:08;;;;;;;3.10;0.63;;;23.20;29.50;;;;;;5053891;28;20192;-69
2022/10/29 00:28:35;;;;;;;3.50;0.70;;;23.30;30.10;;;;;;5051805;28;20200;-68
2022/10/29 00:31:08;;;;;;;1.87;0.60;;;23.60;29.40;;;;;;5040814;28;20283;-69
2022/10/29 00:33:35;;;;;;;0.60;0.50;;;23.50;29.50;;;;;;5034214;28;20177;-69
2022/10/29 00:36:06;;;;;;;2.63;0.60;;;23.30;28.90;;;;;;5050557;28;20191;-68
2022/10/29 00:38:34;;;;;;;1.27;0.80;;;23.20;29.90;;;;;;5053448;28;20545;-68
2022/10/29 00:41:03;;;;;;;0.90;0.60;;;23.40;29.90;;;;;;5053363;28;20660;-69
2022/10/29 00:43:35;;;;;;;1.60;0.50;;;23.40;29.60;;;;;;5051900;28;20260;-69
2022/10/29 00:46:30;;;;;;;1.90;0.60;;;23.70;28.60;;;;;;5046266;28;20522;-68
2022/10/29 00:48:59;;;;;;;1.70;0.80;;;23.70;28.20;;;;;;5040085;28;20666;-68
2022/10/29 00:51:28;;;;;;;0.97;0.70;;;23.80;28.20;;;;;;5044447;28;20279;-69
2022/10/29 00:54:12;;;;;;;3.60;0.60;;;23.80;28.00;;;;;;5052706;28;20261;-68
2022/10/29 00:56:58;;;;;;;3.23;0.73;;;23.80;27.60;;;;;;5051545;28;20638;-71
2022/10/29 00:59:30;;;;;;;1.40;0.60;;;24.20;28.00;;;;;;5051286;28;20183;-75
2022/10/29 01:01:58;;;;;;;0.67;0.50;;;23.80;26.60;;;;;;5041716;28;20191;-72
2022/10/29 01:04:33;;;;;;;0.90;0.60;;;23.80;27.50;;;;;;5047026;28;20591;-75
2022/10/29 01:07:10;;;;;;;1.73;0.70;;;23.90;27.60;;;;;;5034999;28;20179;-75
2022/10/29 01:09:38;;;;;;;3.43;0.87;;;23.80;27.80;;;;;;5068055;28;20743;-68
2022/10/29 01:12:35;;;;;;;2.47;0.93;;;24.20;27.40;;;;;;5053350;28;20172;-71
2022/10/29 01:15:27;;;;;;;2.20;0.90;;;24.50;28.30;;;;;;5039256;28;20539;-72
2022/10/29 01:18:26;;;;;;;2.43;0.77;;;24.10;28.70;;;;;;5047408;28;20630;-73
2022/10/29 01:21:30;;;;;;;1.10;0.50;;;24.40;27.60;;;;;;5053493;28;20168;-73
2022/10/29 01:24:40;;;;;;;2.20;0.50;;;24.80;26.70;;;;;;5051449;28;20580;-66
2022/10/29 01:27:19;;;;;;;0.90;0.50;;;24.60;26.90;;;;;;5039343;28;20320;-68
2022/10/29 01:29:56;;;;;;;1.27;0.70;;;24.80;26.70;;;;;;5051621;28;20215;-68
2022/10/29 01:32:29;;;;;;;1.77;0.60;;;24.80;27.40;;;;;;5052367;28;20206;-67
2022/10/29 01:35:17;;;;;;;4.03;0.73;;;25.10;26.80;;;;;;5047617;28;20228;-68
2022/10/29 01:37:59;;;;;;;0.90;0.50;;;25.00;26.10;;;;;;5049351;28;20634;-68
2022/10/29 01:40:31;;;;;;;1.33;0.90;;;24.80;27.00;;;;;;5050962;28;20534;-67
2022/10/29 01:43:21;;;;;;;2.37;0.50;;;24.80;26.20;;;;;;5049852;28;20219;-66
2022/10/29 01:45:59;;;;;;;2.63;0.67;;;24.80;26.50;;;;;;5039718;28;20524;-68
2022/10/29 01:48:42;;;;;;;1.30;0.60;;;25.20;26.20;;;;;;5052267;28;20187;-68
2022/10/29 01:51:24;;;;;;;1.03;0.60;;;25.30;25.70;;;;;;5032310;28;20242;-67
2022/10/29 01:53:52;;;;;;;0.93;0.60;;;25.30;26.30;;;;;;5046152;28;20218;-69
2022/10/29 01:56:20;;;;;;;1.67;0.70;;;25.50;25.50;;;;;;5034595;28;20198;-69
2022/10/29 01:58:53;;;;;;;2.37;0.70;;;25.60;25.50;;;;;;5050252;28;20512;-69
2022/10/29 02:01:35;;;;;;;1.17;0.50;;;25.90;25.70;;;;;;5052331;28;20184;-71
2022/10/29 02:04:47;;;;;;;1.60;0.50;;;25.90;24.50;;;;;;5033194;28;20165;-69
2022/10/29 02:07:30;;;;;;;2.47;0.80;;;26.00;24.40;;;;;;5045619;28;20249;-70
2022/10/29 02:10:13;;;;;;;1.47;0.57;;;25.90;24.20;;;;;;5052882;28;20207;-70
2022/10/29 02:12:52;;;;;;;2.90;0.60;;;26.10;25.10;;;;;;5032775;28;20635;-72
2022/10/29 02:15:36;;;;;;;0.87;0.57;;;26.30;25.00;;;;;;5014958;28;20223;-72
2022/10/29 02:18:40;;;;;;;2.73;0.70;;;26.30;24.50;;;;;;5045912;28;20187;-72
2022/10/29 02:21:30;;;;;;;2.27;0.60;;;26.70;24.50;;;;;;5033717;28;20199;-74
2022/10/29 02:24:32;;;;;;;1.70;0.73;;;27.10;23.90;;;;;;5052781;28;20183;-76
2022/10/29 02:27:27;;;;;;;1.37;0.53;;;27.10;23.10;;;;;;4991044;28;20276;-75
2022/10/29 02:30:18;;;;;;;3.27;0.60;;;27.30;23.50;;;;;;5034179;28;20357;-72
2022/10/29 02:32:45;;;;;;;2.00;0.50;;;27.00;22.90;;;;;;5052393;28;20176;-66
2022/10/29 02:35:12;;;;;;;0.77;0.53;;;27.10;23.10;;;;;;5055534;28;20237;-68
2022/10/29 02:37:40;;;;;;;1.23;0.50;;;27.10;23.10;;;;;;5055809;28;20179;-68
2022/10/29 02:40:08;;;;;;;3.13;0.50;;;27.30;22.10;;;;;;5055669;28;20642;-69
2022/10/29 02:42:36;;;;;;;1.23;0.67;;;27.30;21.80;;;;;;5054297;28;20215;-68
2022/10/29 02:45:03;;;;;;;0.80;0.50;;;27.50;23.20;;;;;;5055094;28;20215;-69
2022/10/29 02:47:31;;;;;;;0.87;0.50;;;27.00;24.00;;;;;;5055698;28;20197;-70
2022/10/29 02:49:58;;;;;;;1.30;0.70;;;27.10;24.00;;;;;;5055621;28;20219;-70
2022/10/29 02:52:25;;;;;;;0.50;0.50;;;27.10;23.90;;;;;;5055510;28;20188;-71
2022/10/29 02:54:53;;;;;;;1.13;0.60;;;27.10;23.60;;;;;;5055609;28;20188;-69
2022/10/29 02:57:20;;;;;;;1.33;0.67;;;27.50;23.80;;;;;;5055262;28;20176;-70
2022/10/29 02:59:47;;;;;;;0.50;0.50;;;27.50;23.60;;;;;;5055452;28;20180;-69
2022/10/29 03:02:15;;;;;;;0.40;0.40;;;27.80;22.90;;;;;;5055727;28;20214;-70
2022/10/29 03:04:43;;;;;;;0.50;0.50;;;28.00;22.80;;;;;;5055444;28;20184;-69
2022/10/29 03:07:10;;;;;;;1.67;1.20;;;27.60;22.90;;;;;;5055063;28;20230;-69
2022/10/29 03:09:38;;;;;;;3.50;2.37;;;27.30;23.00;;;;;;5055303;28;20204;-69
2022/10/29 03:12:06;;;;;;;2.90;1.10;;;27.80;23.00;;;;;;5053857;28;20187;-69
2022/10/29 03:14:33;;;;;;;1.63;0.80;;;28.20;22.50;;;;;;5055279;28;20176;-68
2022/10/29 03:17:00;;;;;;;0.87;0.60;;;28.00;21.70;;;;;;5055215;28;20602;-68
2022/10/29 03:19:28;;;;;;;1.27;0.70;;;27.80;22.20;;;;;;5054911;28;20191;-69
2022/10/29 03:21:55;;;;;;;1.33;0.70;;;28.10;22.60;;;;;;5055167;28;20546;-70
2022/10/29 03:24:22;;;;;;;0.70;0.60;;;28.40;22.60;;;;;;5054778;28;20646;-70
2022/10/29 03:26:50;;;;;;;0.53;0.50;;;28.00;21.90;;;;;;5054818;28;20172;-70
2022/10/29 03:29:17;;;;;;;1.43;0.60;;;28.30;22.50;;;;;;5054301;28;20695;-69
2022/10/29 03:31:44;;;;;;;3.00;0.70;;;28.40;22.40;;;;;;5054971;28;20176;-70
2022/10/29 03:34:12;;;;;;;2.00;0.90;;;28.30;22.10;;;;;;5054814;28;20180;-70
2022/10/29 03:36:39;;;;;;;1.00;0.63;;;28.90;21.80;;;;;;5054604;28;20263;-69
2022/10/29 03:39:06;;;;;;;0.40;0.40;;;29.30;20.70;;;;;;5054582;28;20572;-69
2022/10/29 03:41:34;;;;;;;1.17;0.70;;;29.10;21.00;;;;;;5069670;28;20176;-69
2022/10/29 03:44:01;;;;;;;1.73;0.70;;;29.10;21.20;;;;;;5051678;28;20235;-69
2022/10/29 03:46:28;;;;;;;2.72;0.50;;;29.40;21.40;;;;;;5036187;28;20176;-68
2022/10/29 03:48:56;;;;;;;1.27;0.70;;;29.40;21.10;;;;;;5054216;28;20234;-68
2022/10/29 03:51:23;;;;;;;0.50;0.50;;;29.50;20.70;;;;;;5054186;28;20168;-68
2022/10/29 03:53:51;;;;;;;0.80;0.40;;;29.00;20.70;;;;;;5052802;28;20176;-69
2022/10/29 03:56:18;;;;;;;2.00;0.60;;;29.20;20.70;;;;;;5054153;28;20257;-69
2022/10/29 03:58:45;;;;;;;0.80;0.50;;;29.30;20.40;;;;;;5054592;28;20172;-69
2022/10/29 04:01:13;;;;;;;0.82;0.50;;;29.40;20.20;;;;;;5053015;28;20172;-69
2022/10/29 04:03:41;;;;;;;0.70;0.40;;;29.30;19.80;;;;;;5048485;28;20481;-69
2022/10/29 04:06:14;;;;;;;0.73;0.30;;;29.20;20.60;;;;;;5053655;28;20222;-69
2022/10/29 04:08:41;;;;;;;1.60;0.60;;;29.30;20.30;;;;;;5052099;28;20208;-69
2022/10/29 04:11:13;;;;;;;0.50;0.32;;;29.40;20.10;;;;;;5053319;28;20188;-69
2022/10/29 04:13:40;;;;;;;1.90;0.40;;;29.10;20.40;;;;;;5054118;28;20198;-69
2022/10/29 04:16:08;;;;;;;2.00;0.40;;;29.90;20.30;;;;;;5053420;28;20176;-69
2022/10/29 04:18:35;;;;;;;1.27;0.50;;;29.50;19.80;;;;;;5053165;28;20176;-68
2022/10/29 04:21:03;;;;;;;0.85;0.40;;;29.70;19.10;;;;;;5053797;28;20184;-68
2022/10/29 04:23:31;;;;;;;1.80;0.30;;;29.50;18.80;;;;;;5052880;28;20199;-68
2022/10/29 04:25:59;;;;;;;1.55;0.50;;;29.70;19.00;;;;;;5044544;28;20267;-68
2022/10/29 04:28:26;;;;;;;6.57;0.55;;;29.50;19.10;;;;;;5051891;28;20194;-69
2022/10/29 04:30:54;;;;;;;0.32;0.32;;;29.80;18.80;;;;;;5052183;28;20188;-70
2022/10/29 04:33:22;;;;;;;1.87;0.40;;;29.80;19.20;;;;;;5053245;28;20203;-68
2022/10/29 04:35:53;;;;;;;0.32;0.30;;;29.40;18.80;;;;;;5052744;28;20188;-68
2022/10/29 04:38:21;;;;;;;0.65;0.60;;;30.50;18.00;;;;;;5051632;28;20195;-68
2022/10/29 04:40:48;;;;;;;1.52;0.30;;;29.80;17.20;;;;;;5053131;28;20265;-69
2022/10/29 04:43:17;;;;;;;2.60;0.63;;;29.30;17.70;;;;;;5067731;28;20613;-69
2022/10/29 04:45:50;;;;;;;0.93;0.50;;;30.30;17.60;;;;;;5051690;28;20342;-69
2022/10/29 04:48:17;;;;;;;1.05;0.50;;;30.20;17.90;;;;;;5053360;28;20646;-69
2022/10/29 04:50:44;;;;;;;1.65;0.40;;;29.90;18.30;;;;;;5053301;28;20204;-68
2022/10/29 04:53:16;;;;;;;1.15;0.30;;;29.90;17.50;;;;;;5051693;28;20206;-74
2022/10/29 04:55:44;;;;;;;2.17;0.70;;;29.00;18.20;;;;;;5052251;28;20222;-69
2022/10/29 04:58:19;;;;;;;0.50;0.40;;;29.30;18.60;;;;;;5053233;28;20241;-70
2022/10/29 05:00:47;;;;;;;0.40;0.40;;;29.70;18.50;;;;;;5053073;28;20218;-68
2022/10/29 05:03:14;;;;;;;0.55;0.40;;;30.50;18.10;;;;;;5053187;28;20670;-69
2022/10/29 05:05:41;;;;;;;0.88;0.40;;;30.80;16.70;;;;;;5053256;28;20188;-68
2022/10/29 05:08:10;;;;;;;2.55;0.43;;;30.90;17.10;;;;;;5052636;28;20258;-70
2022/10/29 05:10:39;;;;;;;0.50;0.40;;;31.30;16.90;;;;;;5052671;28;20214;-70
2022/10/29 05:13:17;;;;;;;0.77;0.65;;;30.30;17.20;;;;;;5052818;28;20179;-69
2022/10/29 05:15:52;;;;;;;0.57;0.43;;;30.40;17.60;;;;;;5027310;28;20239;-69
2022/10/29 05:18:20;;;;;;;1.50;0.73;;;30.70;16.90;;;;;;5052937;28;20198;-69
2022/10/29 05:20:48;;;;;;;1.10;0.50;;;30.80;17.00;;;;;;5052961;28;20270;-69
2022/10/29 05:23:15;;;;;;;3.75;0.70;;;30.10;17.20;;;;;;5052112;28;20267;-69
2022/10/29 05:25:42;;;;;;;2.78;0.60;;;30.60;16.30;;;;;;5052901;28;20183;-69
2022/10/29 05:28:17;;;;;;;1.67;0.50;;;30.90;16.80;;;;;;5052928;28;20721;-69
2022/10/29 05:30:49;;;;;;;1.80;0.52;;;31.10;17.00;;;;;;5051671;28;20224;-68
2022/10/29 05:33:20;;;;;;;0.70;0.40;;;31.10;17.10;;;;;;5052603;28;20225;-67
2022/10/29 05:35:48;;;;;;;0.98;0.40;;;30.90;16.80;;;;;;5052901;28;20646;-68
2022/10/29 05:38:16;;;;;;;0.90;0.57;;;30.30;16.60;;;;;;5052227;28;20672;-69
2022/10/29 05:40:44;;;;;;;0.98;0.60;;;30.30;17.70;;;;;;5052643;28;20176;-69
2022/10/29 05:43:36;;;;;;;2.20;0.40;;;30.60;17.50;;;;;;5052356;28;20235;-67
2022/10/29 05:46:04;;;;;;;1.13;0.52;;;30.80;17.90;;;;;;5049813;28;20191;-68
2022/10/29 05:48:31;;;;;;;1.30;0.43;;;30.10;18.30;;;;;;5052548;28;20584;-67
2022/10/29 05:50:59;;;;;;;0.85;0.45;;;30.20;18.70;;;;;;5052788;28;20180;-68
2022/10/29 05:53:26;;;;;;;1.08;0.40;;;30.50;18.80;;;;;;5051616;28;20608;-69
2022/10/29 05:55:53;;;;;;;0.30;0.30;;;30.80;18.50;;;;;;5067662;28;20741;-69
2022/10/29 05:58:21;;;;;;;0.80;0.55;;;31.10;17.50;;;;;;5052388;28;20650;-68
2022/10/29 06:00:48;;;;;;;0.80;0.40;;;30.00;18.30;;;;;;5052176;28;20196;-68
2022/10/29 06:03:21;;;;;;;0.47;0.43;;;30.00;17.90;;;;;;5052232;28;20180;-69
2022/10/29 06:05:49;;;;;;;1.55;0.60;;;30.80;17.80;;;;;;5049914;28;23251;-68
2022/10/29 06:08:17;;;;;;;0.77;0.55;;;30.30;18.20;;;;;;5053963;28;20633;-71
2022/10/29 06:10:45;;;;;;;0.50;0.50;;;30.00;18.30;;;;;;5056215;28;20694;-68
2022/10/29 06:13:21;;;;;;;1.80;0.47;;;30.10;18.20;;;;;;5056265;28;20850;-69
2022/10/29 06:15:50;;;;;;;0.57;0.40;;;29.80;18.90;;;;;;5056140;28;20650;-69
2022/10/29 06:18:17;;;;;;;0.73;0.53;;;30.00;18.50;;;;;;5056270;28;20199;-69
2022/10/29 06:20:44;;;;;;;5.30;0.73;;;30.90;17.90;;;;;;5056391;28;20233;-69
2022/10/29 06:23:12;;;;;;;1.10;0.57;;;31.10;17.70;;;;;;5055453;28;20176;-69
2022/10/29 06:25:39;;;;;;;1.13;0.77;;;31.10;17.60;;;;;;5056056;28;20535;-69
2022/10/29 06:28:10;;;;;;;1.38;0.57;;;30.80;18.60;;;;;;5055442;28;20317;-69
2022/10/29 06:30:38;;;;;;;0.50;0.40;;;30.80;18.70;;;;;;5055208;28;20301;-69
2022/10/29 06:33:05;;;;;;;0.60;0.52;;;30.40;19.00;;;;;;5052916;28;20180;-70
2022/10/29 06:35:33;;;;;;;1.08;0.50;;;30.10;19.20;;;;;;5049576;28;20264;-68
2022/10/29 06:38:02;;;;;;;1.40;0.60;;;30.50;19.40;;;;;;5050714;28;20172;-68
2022/10/29 06:40:29;;;;;;;1.65;0.60;;;30.20;19.00;;;;;;5035863;28;20180;-70
2022/10/29 06:43:01;;;;;;;1.85;0.80;;;30.10;18.90;;;;;;5055387;28;20295;-69
2022/10/29 06:45:29;;;;;;;1.77;0.70;;;30.00;19.30;;;;;;5054784;28;20198;-70
2022/10/29 06:47:57;;;;;;;0.70;0.52;;;30.20;19.40;;;;;;5054324;28;20179;-70
2022/10/29 06:50:25;;;;;;;1.17;0.60;;;30.10;19.80;;;;;;5054131;28;20216;-69
2022/10/29 06:52:59;;;;;;;1.02;0.50;;;30.20;19.90;;;;;;5052713;28;20183;-70
2022/10/29 06:55:27;;;;;;;1.77;0.52;;;30.00;20.10;;;;;;5042627;28;20178;-67
2022/10/29 06:58:11;;;;;;;1.15;0.40;;;29.40;20.50;;;;;;5053723;28;20241;-68
2022/10/29 07:00:39;;;;;;;2.00;0.50;;;29.40;20.90;;;;;;5043463;28;20471;-68
2022/10/29 07:03:09;;;;;;;1.00;0.57;;;29.80;20.80;;;;;;5053516;28;20650;-71
2022/10/29 07:05:36;;;;;;;1.50;0.40;;;29.50;21.50;;;;;;5053518;28;20218;-68
2022/10/29 07:08:04;;;;;;;0.80;0.50;;;29.20;22.20;;;;;;5054863;28;20180;-71
2022/10/29 07:10:32;;;;;;;2.67;0.70;;;29.10;22.20;;;;;;5054799;28;20270;-69
2022/10/29 07:13:00;;;;;;;1.50;0.80;;;29.10;22.30;;;;;;5055133;28;20646;-71
2022/10/29 07:15:28;;;;;;;1.50;0.70;;;28.90;22.90;;;;;;5052433;28;20719;-68
2022/10/29 07:18:01;;;;;;;2.87;0.70;;;29.00;22.80;;;;;;5047296;28;20172;-70
2022/10/29 07:20:31;;;;;;;1.30;0.60;;;28.30;22.90;;;;;;5053959;28;20582;-69
2022/10/29 07:23:01;;;;;;;1.40;0.70;;;27.90;23.60;;;;;;5046838;28;20230;-68
2022/10/29 07:25:29;;;;;;;1.37;0.60;;;27.80;23.70;;;;;;5041203;28;20643;-69
2022/10/29 07:28:06;;;;;;;2.93;0.70;;;27.70;24.00;;;;;;5045949;28;20530;-68
2022/10/29 07:30:34;;;;;;;3.37;0.70;;;27.20;24.60;;;;;;5048544;28;20775;-68
2022/10/29 07:33:01;;;;;;;1.67;0.60;;;26.40;25.30;;;;;;5046900;28;20180;-68
2022/10/29 07:35:29;;;;;;;1.90;0.83;;;26.00;26.10;;;;;;5054454;28;20184;-67
2022/10/29 07:38:01;;;;;;;1.43;0.60;;;25.40;26.30;;;;;;5052650;28;20188;-68
2022/10/29 07:40:29;;;;;;;1.10;0.67;;;25.00;26.60;;;;;;5054524;28;20180;-68
2022/10/29 07:42:56;;;;;;;2.33;0.80;;;24.70;27.30;;;;;;5054904;28;20203;-68
2022/10/29 07:45:23;;;;;;;1.67;0.73;;;24.50;27.60;;;;;;5049275;28;20224;-69
2022/10/29 07:48:02;;;;;;;1.00;0.80;;;24.30;27.60;;;;;;5046187;28;20496;-68
2022/10/29 07:50:31;;;;;;;3.33;0.97;;;24.30;27.80;;;;;;5050970;28;20211;-68
2022/10/29 07:53:02;;;;;;;1.63;0.70;;;24.20;27.90;;;;;;5053058;28;20184;-69
2022/10/29 07:55:30;;;;;;;2.93;0.90;;;24.10;27.70;;;;;;5054239;28;20650;-68
2022/10/29 07:58:00;;;;;;;1.33;0.90;;;23.90;27.80;;;;;;5053142;28;20176;-68
2022/10/29 08:00:28;;;;;;;2.53;0.80;;;23.80;28.30;;;;;;5044197;28;20634;-68
2022/10/29 08:02:56;;;;;;;1.10;0.73;;;23.90;28.40;;;;;;5054359;28;20517;-68
2022/10/29 08:05:25;;;;;;;1.30;0.60;;;23.80;28.20;;;;;;5048508;28;20172;-68
2022/10/29 08:07:56;;;;;;;3.83;0.80;;;23.70;28.30;;;;;;5053223;28;20238;-68
2022/10/29 08:10:25;;;;;;;5.27;1.00;;;23.60;28.30;;;;;;5053762;28;20204;-67
2022/10/29 08:12:58;;;;;;;3.07;1.03;;;23.50;28.60;;;;;;5045285;28;20184;-68
2022/10/29 08:15:27;;;;;;;2.77;1.00;;;23.40;28.90;;;;;;5053715;28;20233;-68
2022/10/29 08:17:55;;;;;;;2.77;1.10;;;23.30;29.00;;;;;;5053763;28;20180;-68
2022/10/29 08:20:25;;;;;;;1.60;0.90;;;23.20;29.20;;;;;;5053191;28;20227;-68
2022/10/29 08:22:53;;;;;;;4.53;1.20;;;23.10;28.70;;;;;;5049411;28;20198;-68
2022/10/29 08:25:20;;;;;;;2.00;1.07;;;23.00;29.10;;;;;;5050167;28;20192;-68
2022/10/29 08:27:59;;;;;;;1.73;0.70;;;22.90;29.30;;;;;;5052840;28;20188;-68
2022/10/29 08:30:26;;;;;;;2.30;0.90;;;22.90;29.50;;;;;;5052892;28;20211;-69
2022/10/29 08:32:54;;;;;;;4.50;0.90;;;22.80;29.40;;;;;;5053863;28;20622;-69
2022/10/29 08:35:21;;;;;;;3.23;0.90;;;22.80;29.30;;;;;;5035628;28;20719;-68
2022/10/29 08:37:48;;;;;;;1.93;0.90;;;22.70;29.70;;;;;;5050743;28;20681;-68
2022/10/29 08:40:36;;;;;;;1.67;1.20;;;22.70;29.70;;;;;;5051477;28;20222;-68
2022/10/29 08:43:09;;;;;;;2.93;1.00;;;22.60;30.00;;;;;;5043226;28;20592;-68
2022/10/29 08:45:44;;;;;;;3.93;0.80;;;22.60;29.80;;;;;;5053325;28;20182;-69
2022/10/29 08:48:26;;;;;;;2.20;1.27;;;22.50;29.80;;;;;;5053542;28;20718;-69
2022/10/29 08:51:08;;;;;;;1.67;0.80;;;22.40;30.30;;;;;;5053440;28;20333;-68
2022/10/29 08:53:49;;;;;;;1.90;1.57;;;22.30;30.60;;;;;;5052898;28;20176;-70
2022/10/29 08:56:27;;;;;;;5.57;1.83;;;22.30;30.90;;;;;;5048816;28;20214;-68
2022/10/29 08:59:17;;;;;;;4.43;1.23;;;22.20;30.50;;;;;;5050894;28;20267;-67
2022/10/29 09:01:45;;;;;;;1.43;0.90;;;22.20;30.80;;;;;;5047311;28;20301;-67
2022/10/29 09:04:27;;;;;;;2.30;1.00;;;22.10;31.20;;;;;;5051730;28;20653;-70
2022/10/29 09:07:03;;;;;;;2.17;0.90;;;22.00;31.50;;;;;;5053097;28;20188;-67
2022/10/29 09:09:41;;;;;;;3.67;1.20;;;21.90;32.00;;;;;;5051757;28;20234;-67
2022/10/29 09:12:26;;;;;;;2.43;1.20;;;21.80;32.10;;;;;;5051179;28;20230;-68
2022/10/29 09:15:29;;;;;;;2.53;1.00;;;21.80;32.20;;;;;;5050186;28;20179;-67
2022/10/29 09:18:24;;;;;;;4.40;1.40;;;21.70;32.70;;;;;;5049343;28;20371;-68
2022/10/29 09:21:09;;;;;;;1.33;0.90;;;21.60;33.10;;;;;;5052944;28;20267;-69
2022/10/29 09:24:00;;;;;;;9.07;1.07;;;21.60;33.00;;;;;;5046214;28;20247;-68
2022/10/29 09:26:33;;;;;;;3.93;1.03;;;21.50;33.00;;;;;;5052763;28;20369;-68
2022/10/29 09:29:15;;;;;;;2.20;1.00;;;21.40;33.40;;;;;;5050419;28;20230;-69
2022/10/29 09:32:13;;;;;;;3.03;0.90;;;21.30;33.20;;;;;;5048703;28;20223;-68
2022/10/29 09:34:49;;;;;;;4.07;0.90;;;21.30;33.30;;;;;;5052927;28;20179;-68
2022/10/29 09:37:27;;;;;;;2.20;1.07;;;21.30;33.60;;;;;;5051399;28;20190;-68
2022/10/29 09:39:57;;;;;;;4.00;1.20;;;21.20;34.00;;;;;;5051781;28;20206;-69
2022/10/29 09:42:46;;;;;;;1.53;1.00;;;21.10;33.60;;;;;;5051131;28;20268;-68
2022/10/29 09:45:18;;;;;;;2.30;0.90;;;21.10;33.80;;;;;;5047263;28;20196;-68
2022/10/29 09:48:03;;;;;;;1.80;1.10;;;21.10;34.10;;;;;;5046033;28;20245;-69
2022/10/29 09:50:34;;;;;;;3.10;1.13;;;21.00;33.50;;;;;;5051868;28;20219;-68
2022/10/29 09:53:02;;;;;;;1.53;0.90;;;20.90;33.40;;;;;;5043005;28;20183;-68
2022/10/29 09:55:42;;;;;;;2.67;1.17;;;20.90;33.60;;;;;;5051868;28;20185;-68
2022/10/29 09:58:21;;;;;;;4.20;1.00;;;20.80;33.70;;;;;;5050963;28;20187;-68
2022/10/29 10:00:49;;;;;;;2.23;1.00;;;20.80;33.90;;;;;;5051473;28;20282;-68
2022/10/29 10:03:44;;;;;;;2.77;0.80;;;20.80;33.80;;;;;;5041071;28;20608;-68
2022/10/29 10:06:14;;;;;;;2.30;0.90;;;20.70;33.80;;;;;;5035210;28;20630;-68
2022/10/29 10:09:05;;;;;;;3.83;0.77;;;20.70;33.70;;;;;;5047327;28;20205;-68
2022/10/29 10:11:35;;;;;;;3.53;0.70;;;20.60;34.00;;;;;;5039942;28;20528;-67
2022/10/29 10:14:25;;;;;;;2.63;0.93;;;20.60;34.20;;;;;;5050198;28;20198;-68
2022/10/29 10:17:00;;;;;;;5.20;1.03;;;20.50;34.40;;;;;;5052391;28;20271;-67
2022/10/29 10:19:30;;;;;;;3.30;0.90;;;20.50;34.50;;;;;;5052311;28;20211;-68
2022/10/29 10:22:03;;;;;;;3.93;1.00;;;20.50;34.90;;;;;;5046265;28;20172;-68
2022/10/29 10:24:39;;;;;;;2.53;0.73;;;20.40;35.40;;;;;;5050078;28;20566;-68
2022/10/29 10:27:28;;;;;;;4.87;1.27;;;20.40;35.40;;;;;;5037326;28;20262;-68
2022/10/29 10:30:07;;;;;;;1.43;0.90;;;20.40;35.50;;;;;;5042188;28;20212;-69
2022/10/29 10:32:34;;;;;;;1.97;1.00;;;20.30;35.60;;;;;;5051620;28;20570;-69
2022/10/29 10:35:02;;;;;;;2.70;1.00;;;20.30;35.20;;;;;;5052282;28;20184;-68
2022/10/29 10:37:32;;;;;;;2.73;0.80;;;20.30;35.20;;;;;;5050933;28;20279;-69
2022/10/29 10:40:07;;;;;;;4.20;1.03;;;20.30;35.10;;;;;;5051971;28;20172;-68
2022/10/29 10:42:41;;;;;;;2.13;1.00;;;20.30;35.60;;;;;;5052093;28;20186;-68
2022/10/29 10:45:16;;;;;;;5.20;1.10;;;20.20;35.40;;;;;;5051417;28;20266;-68
2022/10/29 10:47:50;;;;;;;2.20;0.90;;;20.10;35.80;;;;;;5051872;28;20271;-68
2022/10/29 10:50:27;;;;;;;2.27;1.10;;;20.10;35.90;;;;;;5052067;28;20246;-68
2022/10/29 10:53:01;;;;;;;2.47;1.03;;;20.00;36.20;;;;;;5051792;28;20184;-69
2022/10/29 10:55:39;;;;;;;1.50;0.90;;;20.00;36.20;;;;;;5053544;28;20279;-69
2022/10/29 10:58:06;;;;;;;2.83;1.10;;;20.00;36.50;;;;;;5056004;28;20172;-69
2022/10/29 11:01:04;;;;;;;4.30;1.10;;;19.90;36.60;;;;;;5055716;28;20740;-69
2022/10/29 11:03:48;;;;;;;2.50;1.20;;;19.90;36.80;;;;;;5039098;28;20191;-69
2022/10/29 11:06:47;;;;;;;4.13;0.80;;;19.80;37.10;;;;;;5055283;28;20184;-68
2022/10/29 11:09:46;;;;;;;2.30;1.00;;;19.80;37.40;;;;;;5033772;28;20211;-68
2022/10/29 11:12:36;;;;;;;2.50;0.70;;;19.80;37.10;;;;;;5054948;28;20188;-68
2022/10/29 11:15:12;;;;;;;1.30;0.80;;;19.70;37.00;;;;;;5053813;28;20179;-69
2022/10/29 11:17:52;;;;;;;3.03;0.90;;;19.70;37.40;;;;;;5054500;28;20179;-66
2022/10/29 11:20:34;;;;;;;2.60;0.90;;;19.70;37.40;;;;;;5041636;28;20182;-66
2022/10/29 11:23:22;;;;;;;2.43;1.20;;;19.70;37.80;;;;;;5049667;28;20179;-66
2022/10/29 11:25:59;;;;;;;1.40;1.00;;;19.60;38.10;;;;;;5054619;28;20187;-67
2022/10/29 11:28:32;;;;;;;2.27;1.00;;;19.60;38.10;;;;;;5054861;28;20211;-67
2022/10/29 11:31:40;;;;;;;4.87;1.20;;;19.50;38.50;;;;;;5054943;28;20207;-67
2022/10/29 11:34:34;;;;;;;5.13;1.20;;;19.60;38.60;;;;;;5053753;28;20650;-67
2022/10/29 11:37:25;;;;;;;2.77;1.20;;;19.50;39.10;;;;;;5054864;28;20176;-67
2022/10/29 11:40:03;;;;;;;3.40;1.30;;;19.40;38.90;;;;;;5054456;28;20180;-67
2022/10/29 11:42:31;;;;;;;5.70;1.20;;;19.40;39.90;;;;;;5055071;28;20171;-67
2022/10/29 11:45:01;;;;;;;2.00;1.10;;;19.30;40.20;;;;;;5054662;28;20594;-67
2022/10/29 11:47:34;;;;;;;3.60;1.30;;;19.30;40.30;;;;;;5054130;28;20566;-67
2022/10/29 11:50:22;;;;;;;2.27;1.13;;;19.20;40.60;;;;;;5054287;28;20203;-67
2022/10/29 11:53:24;;;;;;;3.67;1.50;;;19.10;40.50;;;;;;5048126;28;20240;-67
2022/10/29 11:56:00;;;;;;;4.43;1.37;;;19.10;41.00;;;;;;5053889;28;20557;-68
2022/10/29 11:58:33;;;;;;;4.80;1.50;;;19.00;41.20;;;;;;5054632;28;20523;-68
2022/10/29 12:01:25;;;;;;;2.67;1.30;;;19.00;41.20;;;;;;5036168;28;20548;-67
2022/10/29 12:04:14;;;;;;;2.97;1.33;;;19.00;41.10;;;;;;5039313;28;20217;-67
2022/10/29 12:06:53;;;;;;;3.97;1.33;;;19.00;41.40;;;;;;5054020;28;20180;-67
2022/10/29 12:09:39;;;;;;;3.33;1.33;;;18.90;41.30;;;;;;5052899;28;20222;-67
2022/10/29 12:12:38;;;;;;;3.30;1.40;;;18.90;41.60;;;;;;5054262;28;20201;-67
2022/10/29 12:15:43;;;;;;;3.33;1.20;;;18.90;41.30;;;;;;5054032;28;20183;-66
2022/10/29 12:18:37;;;;;;;2.77;1.20;;;18.90;42.00;;;;;;5052433;28;20194;-68
2022/10/29 12:21:22;;;;;;;2.83;1.37;;;18.90;41.70;;;;;;5053053;28;20199;-67
2022/10/29 12:24:06;;;;;;;3.57;1.23;;;18.80;42.00;;;;;;5041575;28;20181;-67
2022/10/29 12:26:42;;;;;;;3.43;1.23;;;18.80;41.70;;;;;;5053978;28;20176;-66
2022/10/29 12:29:23;;;;;;;6.03;1.43;;;18.80;42.10;;;;;;5053532;28;20210;-67
2022/10/29 12:32:06;;;;;;;2.43;1.27;;;18.80;42.20;;;;;;5053996;28;20237;-67
2022/10/29 12:34:47;;;;;;;4.00;1.20;;;18.80;42.30;;;;;;5053383;28;20191;-67
2022/10/29 12:37:25;;;;;;;2.90;1.20;;;18.70;42.40;;;;;;5049171;28;20271;-67
2022/10/29 12:40:04;;;;;;;3.17;1.17;;;18.80;42.50;;;;;;5053021;28;20275;-67
2022/10/29 12:42:33;;;;;;;3.73;1.43;;;18.80;42.70;;;;;;5040407;28;20180;-67
2022/10/29 12:45:20;;;;;;;2.93;1.40;;;18.80;42.50;;;;;;5053554;28;20230;-67
2022/10/29 12:47:53;;;;;;;2.70;1.20;;;18.80;42.70;;;;;;5045181;28;20192;-66
2022/10/29 12:50:39;;;;;;;3.03;1.10;;;18.70;42.80;;;;;;5052704;28;20219;-67
2022/10/29 12:53:44;;;;;;;2.70;1.33;;;18.70;43.40;;;;;;5049766;28;20630;-67
2022/10/29 12:56:13;;;;;;;3.27;1.20;;;18.70;42.60;;;;;;5040392;28;20183;-66
2022/10/29 12:58:47;;;;;;;6.07;1.13;;;18.70;42.90;;;;;;5053506;28;20230;-67
2022/10/29 13:01:30;;;;;;;3.23;1.17;;;18.70;42.50;;;;;;5052987;28;20178;-67
2022/10/29 13:04:01;;;;;;;3.63;1.10;;;18.70;42.80;;;;;;5048885;28;20180;-67
2022/10/29 13:06:48;;;;;;;2.60;1.00;;;18.60;42.80;;;;;;5053211;28;20270;-67
2022/10/29 13:09:27;;;;;;;2.77;0.90;;;18.50;43.00;;;;;;5052630;28;20204;-68
2022/10/29 13:11:56;;;;;;;1.47;0.90;;;18.50;42.80;;;;;;5048734;28;20183;-67
2022/10/29 13:14:38;;;;;;;1.07;0.90;;;18.50;42.90;;;;;;5053003;28;20167;-67
2022/10/29 13:17:27;;;;;;;2.07;0.80;;;18.50;43.30;;;;;;5052079;28;20203;-67
2022/10/29 13:20:04;;;;;;;3.53;1.10;;;18.40;43.40;;;;;;5042096;28;20223;-66
2022/10/29 13:22:57;;;;;;;1.77;0.90;;;18.30;43.50;;;;;;5051633;28;20202;-68
2022/10/29 13:25:33;;;;;;;4.93;1.10;;;18.30;43.70;;;;;;5052067;28;20175;-67
2022/10/29 13:28:07;;;;;;;2.80;1.10;;;18.30;44.20;;;;;;5046510;28;20677;-66